Time;durP1;ratioP1;P1;durP2;ratioP2;P2;SDS_P1;SDS_P2;PMS_P1;PMS_P2;Temp;Humidity;BMP_temperature;BMP_pressure;BME280_temperature;BME280_humidity;BME280_pressure;Samples;Min_cycle;Max_cycle;Signal;HPM_P1;HPM_P2
2023/07/05 00:02:25;;;;;;;;;;;;;;;15.98;100.00;100483.31;10456932;28;19946;-68
2023/07/05 00:07:27;;;;;;;;;;;;;;;16.15;100.00;100462.56;10455648;28;19925;-68
2023/07/05 00:12:29;;;;;;;;;;;;;;;16.13;100.00;100440.75;10456720;28;20269;-68
2023/07/05 00:17:35;;;;;;;;;;;;;;;16.25;100.00;100421.19;10456936;28;19924;-68
2023/07/05 00:22:37;;;;;;;;;;;;;;;16.12;100.00;100417.94;10455566;28;20315;-67
2023/07/05 00:27:39;;;;;;;;;;;;;;;16.24;100.00;100408.09;10438979;28;19929;-67
2023/07/05 00:32:42;;;;;;;;;;;;;;;15.94;100.00;100394.81;10456334;28;19931;-67
2023/07/05 00:37:44;;;;;;;;;;;;;;;16.15;100.00;100372.78;10455267;28;19924;-67
2023/07/05 00:42:46;;;;;;;;;;;;;;;16.11;100.00;100347.63;10454882;28;20432;-67
2023/07/05 00:47:48;;;;;;;;;;;;;;;16.19;100.00;100334.59;10445602;28;19924;-67
2023/07/05 00:52:51;;;;;;;;;;;;;;;15.91;100.00;100329.06;10463876;28;20380;-66
2023/07/05 00:57:53;;;;;;;;;;;;;;;16.07;100.00;100333.84;10462953;28;20003;-68
2023/07/05 01:02:55;;;;;;;;;;;;;;;16.11;100.00;100287.72;10462508;28;19925;-68
2023/07/05 01:07:58;;;;;;;;;;;;;;;15.89;100.00;100275.56;10463382;28;19974;-67
2023/07/05 01:13:29;;;;;;;;;;;;;;;16.01;100.00;100263.09;10462075;28;19931;-67
2023/07/05 01:18:35;;;;;;;;;;;;;;;16.10;100.00;100267.53;10450276;28;19960;-67
2023/07/05 01:23:43;;;;;;;;;;;;;;;16.28;100.00;100257.16;10461808;28;19931;-67
2023/07/05 01:28:55;;;;;;;;;;;;;;;16.30;100.00;100236.69;10444908;28;19924;-67
2023/07/05 01:33:58;;;;;;;;;;;;;;;16.01;100.00;100243.78;10462360;28;20386;-67
2023/07/05 01:39:00;;;;;;;;;;;;;;;16.17;100.00;100222.94;10462220;28;19929;-67
2023/07/05 01:44:02;;;;;;;;;;;;;;;16.14;100.00;100231.16;10461954;28;20003;-67
2023/07/05 01:49:07;;;;;;;;;;;;;;;16.02;100.00;100221.69;10461617;28;19928;-67
2023/07/05 01:54:12;;;;;;;;;;;;;;;16.20;100.00;100209.47;10461624;28;19925;-66
2023/07/05 01:59:14;;;;;;;;;;;;;;;16.15;100.00;100191.41;10460478;28;19924;-67
2023/07/05 02:04:17;;;;;;;;;;;;;;;16.09;100.00;100193.78;10460076;28;19931;-67
2023/07/05 02:09:19;;;;;;;;;;;;;;;16.14;100.00;100192.38;10459802;28;19932;-67
2023/07/05 02:14:22;;;;;;;;;;;;;;;16.10;100.00;100192.78;10460778;28;20007;-68
2023/07/05 02:19:24;;;;;;;;;;;;;;;16.24;100.00;100186.25;10460822;28;19925;-67
2023/07/05 02:24:26;;;;;;;;;;;;;;;16.23;100.00;100184.59;10460481;28;19975;-67
2023/07/05 02:29:31;;;;;;;;;;;;;;;16.20;100.00;100190.97;10460263;28;19932;-67
2023/07/05 02:34:36;;;;;;;;;;;;;;;16.27;100.00;100192.09;10460146;28;20383;-67
2023/07/05 02:39:38;;;;;;;;;;;;;;;16.51;100.00;100196.94;10459830;28;19925;-67
2023/07/05 02:44:40;;;;;;;;;;;;;;;16.34;100.00;100210.88;10459577;28;19964;-67
2023/07/05 02:49:43;;;;;;;;;;;;;;;16.35;100.00;100215.16;10459326;28;19931;-67
2023/07/05 02:54:45;;;;;;;;;;;;;;;16.27;100.00;100218.50;10459447;28;19925;-67
2023/07/05 02:59:47;;;;;;;;;;;;;;;15.80;100.00;100236.78;10441474;28;19931;-67
2023/07/05 03:04:49;;;;;;;;;;;;;;;15.79;100.00;100245.69;10458735;28;20295;-68
2023/07/05 03:09:52;;;;;;;;;;;;;;;15.00;100.00;100254.22;10457422;28;19925;-66
2023/07/05 03:14:54;;;;;;;;;;;;;;;14.83;100.00;100274.91;10458545;28;19928;-67
2023/07/05 03:19:58;;;;;;;;;;;;;;;14.93;100.00;100266.22;10458189;28;19925;-66
2023/07/05 03:25:01;;;;;;;;;;;;;;;14.79;100.00;100272.66;10458164;28;19956;-68
2023/07/05 03:30:03;;;;;;;;;;;;;;;14.81;100.00;100276.00;10457915;28;19928;-68
2023/07/05 03:35:06;;;;;;;;;;;;;;;14.58;100.00;100277.91;10456550;28;20365;-68
2023/07/05 03:40:08;;;;;;;;;;;;;;;14.36;100.00;100278.81;10457394;28;19998;-67
2023/07/05 03:45:10;;;;;;;;;;;;;;;14.28;100.00;100295.22;10457383;28;19931;-66
2023/07/05 03:50:13;;;;;;;;;;;;;;;14.38;100.00;100298.78;10457189;28;19925;-67
2023/07/05 03:55:15;;;;;;;;;;;;;;;14.55;100.00;100291.31;10472071;22;19932;-67
2023/07/05 04:00:17;;;;;;;;;;;;;;;13.92;100.00;100313.84;10582051;28;19924;-67
2023/07/05 04:05:20;;;;;;;;;;;;;;;14.36;100.00;100311.25;10582393;28;19924;-67
2023/07/05 04:10:22;;;;;;;;;;;;;;;14.19;100.00;100288.91;10582333;28;19924;-67
2023/07/05 04:15:24;;;;;;;;;;;;;;;14.22;100.00;100287.81;10582117;28;19924;-66
2023/07/05 04:20:30;;;;;;;;;;;;;;;14.33;100.00;100293.06;10585469;28;19959;-66
2023/07/05 04:25:33;;;;;;;;;;;;;;;14.12;100.00;100280.69;10590734;28;20023;-66
2023/07/05 04:30:35;;;;;;;;;;;;;;;14.17;100.00;100275.06;10590800;28;19934;-65
2023/07/05 04:35:37;;;;;;;;;;;;;;;14.27;100.00;100293.53;10590464;28;19924;-65
2023/07/05 04:40:40;;;;;;;;;;;;;;;14.32;100.00;100296.63;10590069;28;20358;-65
2023/07/05 04:45:47;;;;;;;;;;;;;;;14.39;100.00;100292.56;10590097;28;19931;-64
2023/07/05 04:50:52;;;;;;;;;;;;;;;14.33;100.00;100285.16;10589748;28;20018;-64
2023/07/05 04:55:56;;;;;;;;;;;;;;;14.34;100.00;100294.75;10589507;28;20332;-65
2023/07/05 05:01:02;;;;;;;;;;;;;;;14.35;100.00;100304.31;10571055;28;19924;-65
2023/07/05 05:06:05;;;;;;;;;;;;;;;14.44;100.00;100293.03;10589213;28;19935;-65
2023/07/05 05:11:07;;;;;;;;;;;;;;;14.56;100.00;100290.34;10588801;28;20282;-64
2023/07/05 05:16:09;;;;;;;;;;;;;;;14.41;100.00;100276.66;10588771;28;19947;-64
2023/07/05 05:21:12;;;;;;;;;;;;;;;14.44;100.00;100260.56;10588659;28;19924;-64
2023/07/05 05:26:14;;;;;;;;;;;;;;;14.69;100.00;100256.78;10588323;28;19924;-64
2023/07/05 05:31:16;;;;;;;;;;;;;;;14.88;100.00;100247.31;10587923;28;19930;-65
2023/07/05 05:36:19;;;;;;;;;;;;;;;14.81;100.00;100273.34;10553158;28;19931;-65
2023/07/05 05:41:21;;;;;;;;;;;;;;;14.88;100.00;100289.50;10587994;28;19924;-66
2023/07/05 05:46:23;;;;;;;;;;;;;;;14.92;100.00;100267.22;10587684;28;19924;-64
2023/07/05 05:51:26;;;;;;;;;;;;;;;14.83;100.00;100274.09;10587320;28;20362;-65
2023/07/05 05:56:28;;;;;;;;;;;;;;;14.82;100.00;100269.78;10587162;28;19924;-65
2023/07/05 06:01:30;;;;;;;;;;;;;;;14.85;100.00;100277.44;10587157;28;19931;-66
2023/07/05 06:06:32;;;;;;;;;;;;;;;14.56;98.32;100282.44;10586730;28;20401;-66
2023/07/05 06:11:35;;;;;;;;;;;;;;;14.43;100.00;100288.72;10586650;28;19923;-66
2023/07/05 06:16:37;;;;;;;;;;;;;;;14.49;100.00;100313.69;10586332;28;19923;-65
2023/07/05 06:21:39;;;;;;;;;;;;;;;14.74;100.00;100291.47;10586290;28;19931;-66
2023/07/05 06:26:42;;;;;;;;;;;;;;;14.60;99.62;100281.25;10585938;28;19924;-65
2023/07/05 06:31:44;;;;;;;;;;;;;;;14.52;100.00;100320.53;10585652;28;20267;-65
2023/07/05 06:36:46;;;;;;;;;;;;;;;14.30;100.00;100304.66;10585453;28;19963;-65
2023/07/05 06:41:49;;;;;;;;;;;;;;;14.30;100.00;100311.72;10584741;28;19928;-66
2023/07/05 06:46:51;;;;;;;;;;;;;;;14.24;100.00;100317.50;10585723;28;20363;-65
2023/07/05 06:51:54;;;;;;;;;;;;;;;14.67;100.00;100311.41;10584945;28;19977;-65
2023/07/05 06:56:56;;;;;;;;;;;;;;;14.79;97.63;100323.59;10566783;28;19924;-67
2023/07/05 07:01:58;;;;;;;;;;;;;;;14.87;94.58;100325.56;10584532;28;19930;-65
2023/07/05 07:07:01;;;;;;;;;;;;;;;14.76;94.42;100336.16;10584214;28;20358;-66
2023/07/05 07:12:05;;;;;;;;;;;;;;;14.54;95.14;100322.09;10583888;28;19924;-65
2023/07/05 07:17:07;;;;;;;;;;;;;;;14.74;91.41;100320.47;10583795;28;19923;-66
2023/07/05 07:22:09;;;;;;;;;;;;;;;14.70;91.68;100324.31;10584027;28;19924;-66
2023/07/05 07:27:12;;;;;;;;;;;;;;;14.60;88.81;100329.50;10583372;28;19963;-67
2023/07/05 07:32:15;;;;;;;;;;;;;;;14.89;88.71;100322.81;10583232;28;20345;-66
2023/07/05 07:37:17;;;;;;;;;;;;;;;15.10;88.22;100344.75;10583066;28;20413;-69
2023/07/05 07:42:19;;;;;;;;;;;;;;;14.96;87.12;100366.13;10583272;28;19924;-66
2023/07/05 07:47:21;;;;;;;;;;;;;;;14.83;83.86;100390.03;10582936;28;19924;-69
2023/07/05 07:52:24;;;;;;;;;;;;;;;14.58;86.06;100392.00;10582671;28;19945;-69
2023/07/05 07:57:26;;;;;;;;;;;;;;;14.97;88.80;100404.72;10581431;28;20271;-69
2023/07/05 08:02:29;;;;;;;;;;;;;;;15.06;86.26;100393.41;10564446;28;19924;-69
2023/07/05 08:07:31;;;;;;;;;;;;;;;15.28;84.46;100399.53;10582722;28;19924;-65
2023/07/05 08:12:34;;;;;;;;;;;;;;;15.60;83.20;100405.59;10582356;28;19930;-68
2023/07/05 08:17:36;;;;;;;;;;;;;;;15.28;84.79;100416.22;10582000;28;20011;-68
2023/07/05 08:22:39;;;;;;;;;;;;;;;14.78;87.29;100444.94;10581979;28;20378;-67
2023/07/05 08:27:41;;;;;;;;;;;;;;;14.73;89.25;100458.47;10582032;28;19946;-66
2023/07/05 08:32:43;;;;;;;;;;;;;;;14.61;92.96;100467.38;10581650;28;20282;-69
2023/07/05 08:37:48;;;;;;;;;;;;;;;14.99;91.37;100477.44;10581795;28;19963;-68
2023/07/05 08:42:55;;;;;;;;;;;;;;;15.43;88.66;100456.28;10581873;28;19927;-67
2023/07/05 08:47:58;;;;;;;;;;;;;;;15.49;94.70;100470.78;10564015;28;19949;-67
2023/07/05 08:53:02;;;;;;;;;;;;;;;15.70;95.00;100471.63;10563832;28;19923;-66
2023/07/05 08:58:04;;;;;;;;;;;;;;;16.03;93.14;100485.59;10564376;28;19966;-66
2023/07/05 09:03:10;;;;;;;;;;;;;;;15.98;95.24;100490.44;10564125;28;19924;-66
2023/07/05 09:08:19;;;;;;;;;;;;;;;15.10;100.00;100537.22;10553410;28;19930;-67
2023/07/05 09:13:24;;;;;;;;;;;;;;;14.47;100.00;100550.06;10589977;28;19924;-68
2023/07/05 09:18:30;;;;;;;;;;;;;;;16.38;99.72;100521.34;10589772;28;20290;-69
2023/07/05 09:24:08;;;;;;;;;;;;;;;17.49;94.62;100505.47;10555480;28;19930;-70
2023/07/05 09:29:15;;;;;;;;;;;;;;;17.11;91.01;100522.97;10489352;28;20450;-69
2023/07/05 09:34:28;;;;;;;;;;;;;;;18.11;84.06;100533.25;10571073;28;19924;-69
2023/07/05 09:39:32;;;;;;;;;;;;;;;17.90;83.79;100541.38;10571078;28;19924;-67
2023/07/05 09:44:35;;;;;;;;;;;;;;;17.15;83.22;100556.97;10588852;28;19930;-66
2023/07/05 09:49:37;;;;;;;;;;;;;;;17.26;82.95;100579.81;10588449;28;19973;-67
2023/07/05 09:54:39;;;;;;;;;;;;;;;16.56;84.78;100595.56;10553795;28;20366;-68
2023/07/05 09:59:42;;;;;;;;;;;;;;;19.09;76.54;100588.56;10587834;28;19924;-67
2023/07/05 10:04:45;;;;;;;;;;;;;;;19.34;71.96;100597.63;10587997;28;20374;-67
2023/07/05 10:09:55;;;;;;;;;;;;;;;19.82;70.07;100600.91;10569789;28;20010;-66
2023/07/05 10:14:58;;;;;;;;;;;;;;;20.38;67.84;100599.69;10570078;28;19969;-66
2023/07/05 10:20:00;;;;;;;;;;;;;;;19.62;65.34;100640.91;10568601;28;19924;-65
2023/07/05 10:25:05;;;;;;;;;;;;;;;20.37;66.27;100629.91;10587979;28;19923;-65
2023/07/05 10:30:14;;;;;;;;;;;;;;;20.88;64.02;100653.16;10585850;28;19924;-65
2023/07/05 10:35:24;;;;;;;;;;;;;;;20.71;61.04;100665.53;10585596;28;20035;-66
2023/07/05 10:40:26;;;;;;;;;;;;;;;20.30;63.04;100673.22;10585856;28;19928;-66
2023/07/05 10:45:34;;;;;;;;;;;;;;;19.83;61.31;100672.50;10567207;28;20007;-65
2023/07/05 10:50:37;;;;;;;;;;;;;;;19.02;63.48;100686.50;10567820;28;19927;-65
2023/07/05 10:55:41;;;;;;;;;;;;;;;19.62;63.76;100691.34;10584805;28;19930;-66
2023/07/05 11:01:04;;;;;;;;;;;;;;;21.00;59.29;100686.50;10566366;28;19923;-65
2023/07/05 11:06:06;;;;;;;;;;;;;;;21.05;59.49;100710.81;10566459;28;19981;-66
2023/07/05 11:11:19;;;;;;;;;;;;;;;21.84;56.73;100714.13;10566232;28;19930;-65
2023/07/05 11:16:22;;;;;;;;;;;;;;;21.75;55.51;100736.41;10565869;28;20286;-65
2023/07/05 11:21:34;;;;;;;;;;;;;;;21.65;54.25;100727.72;10584023;28;19924;-65
2023/07/05 11:26:36;;;;;;;;;;;;;;;20.86;56.99;100738.47;10583708;28;19934;-65
2023/07/05 11:31:38;;;;;;;;;;;;;;;23.14;52.46;100746.28;10583212;28;19930;-66
2023/07/05 11:36:40;;;;;;;;;;;;;;;22.20;52.38;100756.47;10583742;28;20499;-65
2023/07/05 11:41:43;;;;;;;;;;;;;;;23.42;52.74;100753.00;10583076;28;19924;-66
2023/07/05 11:46:45;;;;;;;;;;;;;;;23.31;50.96;100784.44;10583023;28;19923;-67
2023/07/05 11:52:08;;;;;;;;;;;;;;;23.05;52.49;100786.47;10582786;28;19963;-68
2023/07/05 11:57:11;;;;;;;;;;;;;;;23.15;52.03;100789.84;10568263;28;19923;-67
2023/07/05 12:02:23;;;;;;;;;;;;;;;23.08;52.41;100818.22;10564491;28;20022;-67
2023/07/05 12:07:26;;;;;;;;;;;;;;;21.50;55.29;100800.28;10582475;28;20006;-68
2023/07/05 12:12:28;;;;;;;;;;;;;;;21.21;53.58;100816.53;10582070;28;20388;-67
2023/07/05 12:17:31;;;;;;;;;;;;;;;20.48;55.64;100822.94;10582375;28;19930;-74
2023/07/05 12:22:33;;;;;;;;;;;;;;;20.88;54.26;100828.78;10564264;28;19928;-69
2023/07/05 12:27:35;;;;;;;;;;;;;;;22.20;53.99;100830.31;10582017;28;19930;-69
2023/07/05 12:32:38;;;;;;;;;;;;;;;21.25;55.19;100851.66;10563821;28;19974;-70
2023/07/05 12:37:40;;;;;;;;;;;;;;;21.81;54.40;100869.00;10563695;28;19924;-67
2023/07/05 12:42:56;;;;;;;;;;;;;;;20.05;54.00;100867.03;10587164;28;19931;-69
2023/07/05 12:48:17;;;;;;;;;;;;;;;20.28;54.91;100867.44;10589932;28;20288;-69
2023/07/05 12:53:20;;;;;;;;;;;;;;;20.90;52.82;100875.56;10590009;28;19976;-71
2023/07/05 12:58:22;;;;;;;;;;;;;;;19.72;53.69;100884.34;10571625;28;19924;-67
2023/07/05 13:03:25;;;;;;;;;;;;;;;19.60;53.37;100897.81;10571272;28;20362;-68
2023/07/05 13:08:31;;;;;;;;;;;;;;;20.03;55.07;100898.22;10589223;28;20443;-69
2023/07/05 13:13:34;;;;;;;;;;;;;;;19.77;55.84;100901.56;10571451;28;19950;-69
2023/07/05 13:18:37;;;;;;;;;;;;;;;20.07;54.01;100899.59;10589210;28;20006;-68
2023/07/05 13:23:46;;;;;;;;;;;;;;;20.13;55.15;100906.16;10570771;28;20297;-69
2023/07/05 13:28:48;;;;;;;;;;;;;;;19.55;55.77;100939.03;10570504;28;20408;-70
2023/07/05 13:33:55;;;;;;;;;;;;;;;20.80;53.97;100940.50;10588444;28;19930;-71
2023/07/05 13:38:57;;;;;;;;;;;;;;;20.85;53.93;100939.03;10570167;28;20445;-70
2023/07/05 13:43:59;;;;;;;;;;;;;;;21.08;53.69;100944.75;10587828;28;20336;-69
2023/07/05 13:49:01;;;;;;;;;;;;;;;22.23;54.62;100952.66;10587656;28;20002;-70
2023/07/05 13:54:04;;;;;;;;;;;;;;;21.02;53.34;100960.50;10586025;28;20300;-71
2023/07/05 13:59:08;;;;;;;;;;;;;;;20.25;54.97;100965.28;10552676;28;19931;-70
2023/07/05 14:04:10;;;;;;;;;;;;;;;21.29;52.77;100970.19;10586957;28;20019;-72
2023/07/05 14:09:13;;;;;;;;;;;;;;;21.17;53.01;100982.09;10568711;28;19985;-73
2023/07/05 14:14:16;;;;;;;;;;;;;;;22.66;52.17;100974.81;10586591;28;19934;-71
2023/07/05 14:19:19;;;;;;;;;;;;;;;23.64;49.59;100982.09;10586541;28;19930;-72
2023/07/05 14:24:21;;;;;;;;;;;;;;;22.38;49.89;100980.41;10586191;28;20019;-70
2023/07/05 14:29:24;;;;;;;;;;;;;;;24.28;48.31;100992.81;10585894;28;19946;-70
2023/07/05 14:34:27;;;;;;;;;;;;;;;23.91;45.43;100986.25;10585657;28;20382;-72
2023/07/05 14:39:29;;;;;;;;;;;;;;;22.82;48.51;100987.38;10585512;28;19946;-72
2023/07/05 14:44:31;;;;;;;;;;;;;;;22.42;48.55;100995.09;10567507;28;19924;-71
2023/07/05 14:49:33;;;;;;;;;;;;;;;22.68;48.20;100999.53;10585296;28;19930;-70
2023/07/05 14:54:36;;;;;;;;;;;;;;;22.97;47.06;100996.41;10585072;28;19924;-73
2023/07/05 14:59:38;;;;;;;;;;;;;;;23.88;45.72;101001.78;10584593;28;20274;-70
2023/07/05 15:04:40;;;;;;;;;;;;;;;22.29;48.16;101016.03;10584414;28;19930;-72
2023/07/05 15:09:42;;;;;;;;;;;;;;;23.54;47.95;101010.84;10584180;28;20366;-73
2023/07/05 15:14:45;;;;;;;;;;;;;;;23.80;46.70;101021.31;10584161;28;19924;-72
2023/07/05 15:19:51;;;;;;;;;;;;;;;24.05;46.51;101019.44;10566389;28;19934;-72
2023/07/05 15:24:53;;;;;;;;;;;;;;;23.13;48.80;101030.34;10565717;28;19947;-70
2023/07/05 15:29:55;;;;;;;;;;;;;;;22.79;47.33;101044.56;10583837;28;19924;-71
2023/07/05 15:34:57;;;;;;;;;;;;;;;23.69;49.06;101035.88;10583457;28;19928;-71
2023/07/05 15:40:00;;;;;;;;;;;;;;;23.74;46.90;101032.69;10565108;28;20366;-70
2023/07/05 15:45:02;;;;;;;;;;;;;;;21.68;50.83;101052.44;10583182;28;19924;-72
2023/07/05 15:50:07;;;;;;;;;;;;;;;22.28;51.89;101067.72;10582034;28;20143;-69
2023/07/05 15:55:10;;;;;;;;;;;;;;;22.81;48.96;101073.78;10564800;28;20007;-72
2023/07/05 16:00:27;;;;;;;;;;;;;;;22.87;49.27;101066.97;10564216;28;19931;-71
2023/07/05 16:05:31;;;;;;;;;;;;;;;22.41;49.93;101078.78;10565033;28;19924;-71
2023/07/05 16:10:34;;;;;;;;;;;;;;;22.60;51.41;101080.38;10576824;22;19924;-68
2023/07/05 16:15:36;;;;;;;;;;;;;;;22.17;53.03;101084.78;10497496;28;19963;-69
2023/07/05 16:20:39;;;;;;;;;;;;;;;21.62;54.71;101101.00;10480509;28;20015;-69
2023/07/05 16:25:45;;;;;;;;;;;;;;;22.86;52.98;101097.31;10465184;28;19931;-69
2023/07/05 16:30:49;;;;;;;;;;;;;;;22.13;52.88;101101.25;10463607;28;20294;-69
2023/07/05 16:35:54;;;;;;;;;;;;;;;21.69;54.79;101102.09;10497922;28;19970;-69
2023/07/05 16:40:58;;;;;;;;;;;;;;;22.25;53.39;101100.81;10463474;28;19924;-69
2023/07/05 16:46:01;;;;;;;;;;;;;;;21.64;53.68;101110.53;10479847;28;19931;-68
2023/07/05 16:51:04;;;;;;;;;;;;;;;21.75;52.57;101120.09;10497601;28;19977;-70
2023/07/05 16:56:08;;;;;;;;;;;;;;;22.26;52.15;101110.50;10498043;28;19925;-70
2023/07/05 17:01:12;;;;;;;;;;;;;;;21.89;52.45;101108.91;10497644;28;19924;-69
2023/07/05 17:06:14;;;;;;;;;;;;;;;21.89;53.33;101116.91;10463312;28;19928;-70
2023/07/05 17:11:16;;;;;;;;;;;;;;;21.68;53.96;101114.56;10478888;28;19930;-69
2023/07/05 17:16:19;;;;;;;;;;;;;;;20.79;55.09;101125.88;10479463;28;19935;-69
2023/07/05 17:21:21;;;;;;;;;;;;;;;20.99;55.19;101139.13;10496890;28;19932;-69
2023/07/05 17:26:24;;;;;;;;;;;;;;;20.18;57.05;101138.63;10498472;28;19928;-69
2023/07/05 17:31:26;;;;;;;;;;;;;;;20.35;56.97;101136.22;10504011;28;19924;-68
2023/07/05 17:36:28;;;;;;;;;;;;;;;20.30;58.46;101154.44;10486303;28;20031;-73
2023/07/05 17:41:32;;;;;;;;;;;;;;;18.26;67.76;101190.84;10503743;28;19924;-66
2023/07/05 17:46:41;;;;;;;;;;;;;;;18.82;80.83;101194.13;10503650;28;19932;-67
2023/07/05 17:51:43;;;;;;;;;;;;;;;18.85;87.47;101186.78;10503639;28;19925;-66
2023/07/05 17:56:46;;;;;;;;;;;;;;;18.90;87.43;101189.03;10503262;28;19924;-67
2023/07/05 18:01:48;;;;;;;;;;;;;;;18.75;90.03;101199.13;10503241;28;19928;-71
2023/07/05 18:06:51;;;;;;;;;;;;;;;18.56;88.70;101208.63;10485268;28;19925;-71
2023/07/05 18:11:53;;;;;;;;;;;;;;;17.75;94.42;101218.84;10502381;28;19930;-71
2023/07/05 18:16:56;;;;;;;;;;;;;;;18.23;90.89;101214.97;10484764;28;20286;-71
2023/07/05 18:21:58;;;;;;;;;;;;;;;18.30;89.38;101224.06;10502163;28;19935;-67
2023/07/05 18:27:01;;;;;;;;;;;;;;;18.05;97.33;101224.44;10502008;28;20371;-66
2023/07/05 18:32:03;;;;;;;;;;;;;;;17.94;90.53;101225.31;10501843;28;19928;-67
2023/07/05 18:37:05;;;;;;;;;;;;;;;18.05;98.18;101235.03;10501318;28;20295;-67
2023/07/05 18:42:10;;;;;;;;;;;;;;;18.27;97.85;101242.03;10483436;28;19924;-67
2023/07/05 18:47:13;;;;;;;;;;;;;;;18.11;97.29;101247.78;10501138;28;19924;-66
2023/07/05 18:52:15;;;;;;;;;;;;;;;17.69;95.29;101261.69;10483408;28;19929;-66
2023/07/05 18:57:18;;;;;;;;;;;;;;;17.19;100.00;101274.47;10500734;28;19934;-66
2023/07/05 19:02:21;;;;;;;;;;;;;;;17.21;100.00;101264.63;10483139;28;19938;-66
2023/07/05 19:07:23;;;;;;;;;;;;;;;17.19;100.00;101272.66;10500494;28;19925;-66
2023/07/05 19:12:25;;;;;;;;;;;;;;;17.18;100.00;101284.22;10482141;28;19924;-66
2023/07/05 19:17:28;;;;;;;;;;;;;;;17.08;100.00;101286.75;10500179;28;19931;-66
2023/07/05 19:22:31;;;;;;;;;;;;;;;16.64;100.00;101287.44;10499744;28;19931;-66
2023/07/05 19:27:35;;;;;;;;;;;;;;;16.57;100.00;101289.72;10481851;28;20410;-66
2023/07/05 19:32:38;;;;;;;;;;;;;;;16.59;100.00;101303.66;10499364;28;20301;-67
2023/07/05 19:37:40;;;;;;;;;;;;;;;16.95;100.00;101320.38;10499523;28;19925;-68
2023/07/05 19:42:42;;;;;;;;;;;;;;;16.74;100.00;101303.47;10499171;28;19946;-68
2023/07/05 19:47:46;;;;;;;;;;;;;;;16.43;100.00;101318.97;10499190;28;19924;-68
2023/07/05 19:52:48;;;;;;;;;;;;;;;16.57;100.00;101310.84;10498700;28;20003;-68
2023/07/05 19:57:50;;;;;;;;;;;;;;;16.47;100.00;101317.78;10498678;28;19924;-68
2023/07/05 20:02:53;;;;;;;;;;;;;;;16.46;100.00;101322.25;10498540;28;20007;-68
2023/07/05 20:07:55;;;;;;;;;;;;;;;16.83;100.00;101326.59;10498432;28;19966;-68
2023/07/05 20:12:57;;;;;;;;;;;;;;;16.59;100.00;101337.19;10498388;28;19924;-68
2023/07/05 20:18:00;;;;;;;;;;;;;;;16.96;100.00;101374.13;10498167;28;20011;-68
2023/07/05 20:23:02;;;;;;;;;;;;;;;15.91;100.00;101395.75;10480317;28;19928;-67
2023/07/05 20:28:05;;;;;;;;;;;;;;;16.10;100.00;101383.88;10498363;28;20003;-68
2023/07/05 20:33:07;;;;;;;;;;;;;;;15.62;100.00;101371.34;10497820;28;19924;-68
2023/07/05 20:38:09;;;;;;;;;;;;;;;15.71;100.00;101364.59;10498103;28;19934;-68
2023/07/05 20:43:14;;;;;;;;;;;;;;;15.59;100.00;101366.28;10497765;28;19924;-68
2023/07/05 20:48:16;;;;;;;;;;;;;;;15.54;100.00;101376.31;10497633;28;19924;-68
2023/07/05 20:53:19;;;;;;;;;;;;;;;15.46;100.00;101382.13;10479729;28;20298;-68
2023/07/05 20:58:21;;;;;;;;;;;;;;;15.50;100.00;101380.97;10497571;28;19925;-68
2023/07/05 21:03:24;;;;;;;;;;;;;;;15.60;100.00;101382.03;10484246;28;20268;-68
2023/07/05 21:08:29;;;;;;;;;;;;;;;15.37;100.00;101380.13;10487410;28;19924;-68
2023/07/05 21:13:32;;;;;;;;;;;;;;;15.19;100.00;101387.50;10504620;28;19946;-68
2023/07/05 21:18:34;;;;;;;;;;;;;;;15.29;100.00;101379.81;10470648;28;20387;-68
2023/07/05 21:23:36;;;;;;;;;;;;;;;15.02;100.00;101386.00;10486781;28;19924;-68
2023/07/05 21:28:40;;;;;;;;;;;;;;;14.71;100.00;101397.69;10486821;28;20260;-68
2023/07/05 21:33:43;;;;;;;;;;;;;;;14.63;100.00;101400.84;10486686;28;19924;-68
2023/07/05 21:38:45;;;;;;;;;;;;;;;14.62;100.00;101407.88;10504160;28;20419;-68
2023/07/05 21:43:47;;;;;;;;;;;;;;;14.77;100.00;101418.41;10503872;28;19930;-68
2023/07/05 21:48:49;;;;;;;;;;;;;;;14.47;100.00;101427.28;10503656;28;19928;-68
2023/07/05 21:53:52;;;;;;;;;;;;;;;14.28;100.00;101425.81;10503507;28;19930;-68
2023/07/05 21:58:58;;;;;;;;;;;;;;;14.47;100.00;101435.19;10503194;28;20015;-68
2023/07/05 22:04:00;;;;;;;;;;;;;;;14.58;100.00;101429.25;10485899;28;19931;-68
2023/07/05 22:09:02;;;;;;;;;;;;;;;14.77;100.00;101440.31;10485073;28;19931;-68
2023/07/05 22:14:05;;;;;;;;;;;;;;;14.94;100.00;101441.84;10501226;28;20291;-68
2023/07/05 22:19:09;;;;;;;;;;;;;;;14.93;100.00;101445.44;10484837;28;19968;-68
2023/07/05 22:24:12;;;;;;;;;;;;;;;15.17;100.00;101440.34;10502225;28;19967;-68
2023/07/05 22:29:14;;;;;;;;;;;;;;;15.17;100.00;101442.97;10502056;28;20278;-68
2023/07/05 22:34:17;;;;;;;;;;;;;;;15.28;100.00;101437.00;10501857;28;19931;-68
2023/07/05 22:39:19;;;;;;;;;;;;;;;15.00;100.00;101454.66;10484208;28;19934;-68
2023/07/05 22:44:22;;;;;;;;;;;;;;;15.31;100.00;101439.41;10501505;28;19933;-69
2023/07/05 22:49:24;;;;;;;;;;;;;;;15.12;100.00;101442.44;10501180;28;20007;-69
2023/07/05 22:54:26;;;;;;;;;;;;;;;15.26;100.00;101440.69;10501149;28;19924;-69
2023/07/05 22:59:28;;;;;;;;;;;;;;;15.26;100.00;101438.03;10483100;28;19924;-68
2023/07/05 23:04:33;;;;;;;;;;;;;;;15.22;100.00;101434.75;10500472;28;20390;-68
2023/07/05 23:09:36;;;;;;;;;;;;;;;15.08;100.00;101448.88;10500435;28;19924;-68
2023/07/05 23:14:38;;;;;;;;;;;;;;;15.13;100.00;101445.91;10499959;28;19930;-68
2023/07/05 23:19:40;;;;;;;;;;;;;;;14.81;100.00;101457.66;10482192;28;19924;-68
2023/07/05 23:24:43;;;;;;;;;;;;;;;15.02;100.00;101449.28;10499613;28;19979;-68
2023/07/05 23:29:47;;;;;;;;;;;;;;;15.07;100.00;101454.25;10499514;28;20287;-68
2023/07/05 23:34:50;;;;;;;;;;;;;;;15.08;100.00;101455.91;10499290;28;19924;-68
2023/07/05 23:39:52;;;;;;;;;;;;;;;14.82;100.00;101455.84;10499297;28;19925;-68
2023/07/05 23:44:55;;;;;;;;;;;;;;;14.83;100.00;101449.63;10498977;28;20317;-68
2023/07/05 23:49:59;;;;;;;;;;;;;;;14.91;100.00;101449.13;10481700;28;19938;-68
2023/07/05 23:55:02;;;;;;;;;;;;;;;14.67;100.00;101447.13;10498651;28;20357;-69
